sensor_id;sensor_type;location;lat;lon;timestamp;pressure;altitude;pressure_sealevel;temperature;humidity
29907;BME280;16776;50.958;10.994;2023-02-18T00:02:06;98898.47;;;9.62;100.00
29907;BME280;16776;50.958;10.994;2023-02-18T00:04:34;98886.47;;;9.62;100.00
29907;BME280;16776;50.958;10.994;2023-02-18T00:07:00;98898.50;;;9.60;100.00
29907;BME280;16776;50.958;10.994;2023-02-18T00:09:29;98901.97;;;9.59;100.00
29907;BME280;16776;50.958;10.994;2023-02-18T00:11:57;98890.78;;;9.60;100.00
29907;BME280;16776;50.958;10.994;2023-02-18T00:14:24;98897.72;;;9.57;100.00
29907;BME280;16776;50.958;10.994;2023-02-18T00:16:50;98889.16;;;9.56;100.00
29907;BME280;16776;50.958;10.994;2023-02-18T00:19:18;98903.72;;;9.57;100.00
29907;BME280;16776;50.958;10.994;2023-02-18T00:21:45;98888.31;;;9.56;100.00
29907;BME280;16776;50.958;10.994;2023-02-18T00:24:15;98890.00;;;9.57;100.00
29907;BME280;16776;50.958;10.994;2023-02-18T00:26:42;98894.28;;;9.56;100.00
29907;BME280;16776;50.958;10.994;2023-02-18T00:29:10;98896.03;;;9.56;100.00
29907;BME280;16776;50.958;10.994;2023-02-18T00:31:38;98890.03;;;9.55;100.00
29907;BME280;16776;50.958;10.994;2023-02-18T00:34:05;98895.25;;;9.52;100.00
29907;BME280;16776;50.958;10.994;2023-02-18T00:36:32;98892.69;;;9.51;100.00
29907;BME280;16776;50.958;10.994;2023-02-18T00:39:00;98887.53;;;9.51;100.00
29907;BME280;16776;50.958;10.994;2023-02-18T00:41:28;98885.06;;;9.46;100.00
29907;BME280;16776;50.958;10.994;2023-02-18T00:43:55;98887.63;;;9.46;100.00
29907;BME280;16776;50.958;10.994;2023-02-18T00:46:26;98894.44;;;9.49;100.00
29907;BME280;16776;50.958;10.994;2023-02-18T00:48:54;98885.09;;;9.44;100.00
29907;BME280;16776;50.958;10.994;2023-02-18T00:51:20;98893.66;;;9.43;100.00
29907;BME280;16776;50.958;10.994;2023-02-18T00:53:47;98886.81;;;9.44;100.00
29907;BME280;16776;50.958;10.994;2023-02-18T00:56:14;98887.69;;;9.43;100.00
29907;BME280;16776;50.958;10.994;2023-02-18T00:58:41;98878.38;;;9.34;100.00
29907;BME280;16776;50.958;10.994;2023-02-18T01:01:09;98894.53;;;9.44;100.00
29907;BME280;16776;50.958;10.994;2023-02-18T01:03:39;98895.34;;;9.46;100.00
29907;BME280;16776;50.958;10.994;2023-02-18T01:06:06;98892.81;;;9.43;100.00
29907;BME280;16776;50.958;10.994;2023-02-18T01:08:34;98894.53;;;9.42;100.00
29907;BME280;16776;50.958;10.994;2023-02-18T01:11:02;98901.41;;;9.40;100.00
29907;BME280;16776;50.958;10.994;2023-02-18T01:13:29;98892.91;;;9.38;100.00
29907;BME280;16776;50.958;10.994;2023-02-18T01:15:55;98890.34;;;9.38;100.00
29907;BME280;16776;50.958;10.994;2023-02-18T01:18:24;98893.75;;;9.39;100.00
29907;BME280;16776;50.958;10.994;2023-02-18T01:20:52;98894.63;;;9.38;100.00
29907;BME280;16776;50.958;10.994;2023-02-18T01:23:19;98898.94;;;9.34;100.00
29907;BME280;16776;50.958;10.994;2023-02-18T01:25:46;98899.00;;;9.31;100.00
29907;BME280;16776;50.958;10.994;2023-02-18T01:28:13;98887.88;;;9.31;100.00
29907;BME280;16776;50.958;10.994;2023-02-18T01:30:41;98890.47;;;9.28;100.00
29907;BME280;16776;50.958;10.994;2023-02-18T01:33:09;98885.34;;;9.28;100.00
29907;BME280;16776;50.958;10.994;2023-02-18T01:35:37;98885.41;;;9.25;100.00
29907;BME280;16776;50.958;10.994;2023-02-18T01:38:05;98884.56;;;9.24;100.00
29907;BME280;16776;50.958;10.994;2023-02-18T01:40:32;98888.06;;;9.20;100.00
29907;BME280;16776;50.958;10.994;2023-02-18T01:42:59;98885.50;;;9.19;100.00
29907;BME280;16776;50.958;10.994;2023-02-18T01:45:42;98899.13;;;9.24;100.00
29907;BME280;16776;50.958;10.994;2023-02-18T01:48:16;98888.09;;;9.17;100.00
29907;BME280;16776;50.958;10.994;2023-02-18T01:50:46;98895.91;;;9.13;100.00
29907;BME280;16776;50.958;10.994;2023-02-18T01:53:19;98862.75;;;8.97;100.00
29907;BME280;16776;50.958;10.994;2023-02-18T01:55:48;98894.28;;;9.07;100.00
29907;BME280;16776;50.958;10.994;2023-02-18T01:58:15;98906.31;;;9.03;100.00
29907;BME280;16776;50.958;10.994;2023-02-18T02:00:42;98902.09;;;9.01;100.00
29907;BME280;16776;50.958;10.994;2023-02-18T02:03:11;98893.56;;;8.96;100.00
29907;BME280;16776;50.958;10.994;2023-02-18T02:05:38;98897.88;;;8.95;100.00
29907;BME280;16776;50.958;10.994;2023-02-18T02:08:05;98897.03;;;8.95;100.00
29907;BME280;16776;50.958;10.994;2023-02-18T02:10:45;98896.97;;;8.99;100.00
29907;BME280;16776;50.958;10.994;2023-02-18T02:13:21;98893.66;;;8.93;100.00
29907;BME280;16776;50.958;10.994;2023-02-18T02:15:57;98886.78;;;8.95;100.00
29907;BME280;16776;50.958;10.994;2023-02-18T02:18:35;98895.28;;;8.95;100.00
29907;BME280;16776;50.958;10.994;2023-02-18T02:21:23;98888.44;;;8.96;100.00
29907;BME280;16776;50.958;10.994;2023-02-18T02:24:26;98884.22;;;8.95;100.00
29907;BME280;16776;50.958;10.994;2023-02-18T02:27:11;98887.66;;;8.91;100.00
29907;BME280;16776;50.958;10.994;2023-02-18T02:30:13;98878.25;;;8.91;100.00
29907;BME280;16776;50.958;10.994;2023-02-18T02:35:44;98870.72;;;8.82;100.00
29907;BME280;16776;50.958;10.994;2023-02-18T02:38:18;98879.22;;;8.83;100.00
29907;BME280;16776;50.958;10.994;2023-02-18T02:40:54;98873.28;;;8.81;100.00
29907;BME280;16776;50.958;10.994;2023-02-18T02:43:32;98874.09;;;8.83;100.00
29907;BME280;16776;50.958;10.994;2023-02-18T02:46:02;98870.75;;;8.79;100.00
29907;BME280;16776;50.958;10.994;2023-02-18T02:48:35;98868.25;;;8.76;100.00
29907;BME280;16776;50.958;10.994;2023-02-18T02:51:09;98868.16;;;8.81;100.00
29907;BME280;16776;50.958;10.994;2023-02-18T02:53:39;98869.91;;;8.79;100.00
29907;BME280;16776;50.958;10.994;2023-02-18T02:56:10;98857.13;;;8.74;100.00
29907;BME280;16776;50.958;10.994;2023-02-18T02:58:38;98850.31;;;8.73;100.00
29907;BME280;16776;50.958;10.994;2023-02-18T03:01:19;98851.03;;;8.81;100.00
29907;BME280;16776;50.958;10.994;2023-02-18T03:04:20;98847.63;;;8.81;100.00
29907;BME280;16776;50.958;10.994;2023-02-18T03:07:02;98840.78;;;8.78;100.00
29907;BME280;16776;50.958;10.994;2023-02-18T03:09:41;98847.72;;;8.75;100.00
29907;BME280;16776;50.958;10.994;2023-02-18T03:12:18;98846.88;;;8.74;100.00
29907;BME280;16776;50.958;10.994;2023-02-18T03:14:55;98846.88;;;8.74;100.00
29907;BME280;16776;50.958;10.994;2023-02-18T03:17:27;98843.47;;;8.71;100.00
29907;BME280;16776;50.958;10.994;2023-02-18T03:19:59;98838.34;;;8.71;100.00
29907;BME280;16776;50.958;10.994;2023-02-18T03:22:32;98839.19;;;8.71;100.00
29907;BME280;16776;50.958;10.994;2023-02-18T03:25:02;98840.97;;;8.68;100.00
29907;BME280;16776;50.958;10.994;2023-02-18T03:27:31;98831.50;;;8.71;100.00
29907;BME280;16776;50.958;10.994;2023-02-18T03:30:02;98831.50;;;8.71;100.00
29907;BME280;16776;50.958;10.994;2023-02-18T03:32:30;98836.69;;;8.68;100.00
29907;BME280;16776;50.958;10.994;2023-02-18T03:35:01;98819.63;;;8.64;100.00
29907;BME280;16776;50.958;10.994;2023-02-18T03:37:31;98831.53;;;8.70;100.00
29907;BME280;16776;50.958;10.994;2023-02-18T03:40:01;98817.88;;;8.66;100.00
29907;BME280;16776;50.958;10.994;2023-02-18T03:42:28;98823.88;;;8.65;100.00
29907;BME280;16776;50.958;10.994;2023-02-18T03:44:55;98823.91;;;8.63;100.00
29907;BME280;16776;50.958;10.994;2023-02-18T03:47:22;98824.84;;;8.59;100.00
29907;BME280;16776;50.958;10.994;2023-02-18T03:49:48;98814.66;;;8.55;100.00
29907;BME280;16776;50.958;10.994;2023-02-18T03:52:15;98811.31;;;8.50;100.00
29907;BME280;16776;50.958;10.994;2023-02-18T03:54:43;98819.03;;;8.48;100.00
29907;BME280;16776;50.958;10.994;2023-02-18T03:57:09;98819.13;;;8.42;100.00
29907;BME280;16776;50.958;10.994;2023-02-18T03:59:36;98813.16;;;8.40;100.00
29907;BME280;16776;50.958;10.994;2023-02-18T04:02:02;98813.16;;;8.39;100.00
29907;BME280;16776;50.958;10.994;2023-02-18T04:04:29;98814.94;;;8.37;100.00
29907;BME280;16776;50.958;10.994;2023-02-18T04:06:56;98811.50;;;8.38;100.00
29907;BME280;16776;50.958;10.994;2023-02-18T04:09:22;98801.25;;;8.38;100.00
29907;BME280;16776;50.958;10.994;2023-02-18T04:11:50;98798.59;;;8.41;100.00
29907;BME280;16776;50.958;10.994;2023-02-18T04:14:17;98793.50;;;8.39;100.00
29907;BME280;16776;50.958;10.994;2023-02-18T04:16:43;98800.31;;;8.42;100.00
29907;BME280;16776;50.958;10.994;2023-02-18T04:19:10;98800.31;;;8.42;100.00
29907;BME280;16776;50.958;10.994;2023-02-18T04:21:36;98805.44;;;8.43;100.00
29907;BME280;16776;50.958;10.994;2023-02-18T04:24:03;98804.53;;;8.44;100.00
29907;BME280;16776;50.958;10.994;2023-02-18T04:26:30;98796.81;;;8.46;100.00
29907;BME280;16776;50.958;10.994;2023-02-18T04:28:58;98802.78;;;8.48;100.00
29907;BME280;16776;50.958;10.994;2023-02-18T04:31:24;98796.78;;;8.47;100.00
29907;BME280;16776;50.958;10.994;2023-02-18T04:33:51;98797.66;;;8.48;100.00
29907;BME280;16776;50.958;10.994;2023-02-18T04:36:17;98802.75;;;8.49;100.00
29907;BME280;16776;50.958;10.994;2023-02-18T04:38:44;98791.63;;;8.50;100.00
29907;BME280;16776;50.958;10.994;2023-02-18T04:41:11;98782.16;;;8.52;100.00
29907;BME280;16776;50.958;10.994;2023-02-18T04:43:38;98783.00;;;8.53;100.00
29907;BME280;16776;50.958;10.994;2023-02-18T04:46:06;98783.00;;;8.54;100.00
29907;BME280;16776;50.958;10.994;2023-02-18T04:48:32;98778.72;;;8.53;100.00
29907;BME280;16776;50.958;10.994;2023-02-18T04:51:02;98767.59;;;8.54;100.00
29907;BME280;16776;50.958;10.994;2023-02-18T04:53:28;98765.88;;;8.55;100.00
29907;BME280;16776;50.958;10.994;2023-02-18T04:55:55;98771.00;;;8.56;100.00
29907;BME280;16776;50.958;10.994;2023-02-18T04:58:21;98766.72;;;8.57;100.00
29907;BME280;16776;50.958;10.994;2023-02-18T05:00:48;98776.06;;;8.58;100.00
29907;BME280;16776;50.958;10.994;2023-02-18T05:03:16;98765.78;;;8.61;100.00
29907;BME280;16776;50.958;10.994;2023-02-18T05:05:43;98757.25;;;8.59;100.00
29907;BME280;16776;50.958;10.994;2023-02-18T05:08:10;98746.13;;;8.58;100.00
29907;BME280;16776;50.958;10.994;2023-02-18T05:10:37;98746.09;;;8.60;100.00
29907;BME280;16776;50.958;10.994;2023-02-18T05:13:04;98742.72;;;8.58;100.00
29907;BME280;16776;50.958;10.994;2023-02-18T05:15:30;98737.56;;;8.58;100.00
29907;BME280;16776;50.958;10.994;2023-02-18T05:17:57;98741.84;;;8.57;100.00
29907;BME280;16776;50.958;10.994;2023-02-18T05:20:25;98738.44;;;8.58;100.00
29907;BME280;16776;50.958;10.994;2023-02-18T05:22:51;98738.50;;;8.55;100.00
29907;BME280;16776;50.958;10.994;2023-02-18T05:25:18;98741.91;;;8.56;100.00
29907;BME280;16776;50.958;10.994;2023-02-18T05:27:44;98742.75;;;8.56;100.00
29907;BME280;16776;50.958;10.994;2023-02-18T05:30:12;98749.56;;;8.57;100.00
29907;BME280;16776;50.958;10.994;2023-02-18T05:32:38;98746.19;;;8.57;100.00
29907;BME280;16776;50.958;10.994;2023-02-18T05:35:06;98745.28;;;8.58;100.00
29907;BME280;16776;50.958;10.994;2023-02-18T05:37:34;98723.84;;;8.62;100.00
29907;BME280;16776;50.958;10.994;2023-02-18T05:40:01;98726.41;;;8.60;100.00
29907;BME280;16776;50.958;10.994;2023-02-18T05:42:27;98715.31;;;8.60;100.00
29907;BME280;16776;50.958;10.994;2023-02-18T05:44:54;98726.41;;;8.60;100.00
29907;BME280;16776;50.958;10.994;2023-02-18T05:47:20;98706.72;;;8.61;100.00
29907;BME280;16776;50.958;10.994;2023-02-18T05:49:50;98714.44;;;8.61;100.00
29907;BME280;16776;50.958;10.994;2023-02-18T05:52:17;98708.44;;;8.60;100.00
29907;BME280;16776;50.958;10.994;2023-02-18T05:54:45;98712.63;;;8.66;100.00
29907;BME280;16776;50.958;10.994;2023-02-18T05:57:12;98712.66;;;8.64;100.00
29907;BME280;16776;50.958;10.994;2023-02-18T05:59:39;98708.44;;;8.62;100.00
29907;BME280;16776;50.958;10.994;2023-02-18T06:02:06;98697.31;;;8.61;100.00
29907;BME280;16776;50.958;10.994;2023-02-18T06:04:33;98695.63;;;8.60;100.00
29907;BME280;16776;50.958;10.994;2023-02-18T06:06:59;98683.66;;;8.59;100.00
29907;BME280;16776;50.958;10.994;2023-02-18T06:09:26;98681.09;;;8.59;100.00
29907;BME280;16776;50.958;10.994;2023-02-18T06:11:54;98680.22;;;8.60;100.00
29907;BME280;16776;50.958;10.994;2023-02-18T06:14:20;98674.31;;;8.57;100.00
29907;BME280;16776;50.958;10.994;2023-02-18T06:16:47;98667.47;;;8.56;100.00
29907;BME280;16776;50.958;10.994;2023-02-18T06:19:13;98655.50;;;8.55;100.00
29907;BME280;16776;50.958;10.994;2023-02-18T06:21:40;98661.53;;;8.52;100.00
29907;BME280;16776;50.958;10.994;2023-02-18T06:24:09;98665.81;;;8.52;100.00
29907;BME280;16776;50.958;10.994;2023-02-18T06:26:35;98669.25;;;8.51;100.00
29907;BME280;16776;50.958;10.994;2023-02-18T06:29:03;98659.81;;;8.53;100.00
29907;BME280;16776;50.958;10.994;2023-02-18T06:31:30;98666.69;;;8.51;100.00
29907;BME280;16776;50.958;10.994;2023-02-18T06:33:56;98657.34;;;8.48;100.00
29907;BME280;16776;50.958;10.994;2023-02-18T06:36:23;98661.56;;;8.51;100.00
29907;BME280;16776;50.958;10.994;2023-02-18T06:38:49;98660.69;;;8.52;100.00
29907;BME280;16776;50.958;10.994;2023-02-18T06:41:18;98652.97;;;8.52;100.00
29907;BME280;16776;50.958;10.994;2023-02-18T06:43:44;98666.66;;;8.54;100.00
29907;BME280;16776;50.958;10.994;2023-02-18T06:46:12;98652.88;;;8.58;100.00
29907;BME280;16776;50.958;10.994;2023-02-18T06:48:39;98645.22;;;8.56;100.00
29907;BME280;16776;50.958;10.994;2023-02-18T06:51:05;98640.84;;;8.61;100.00
29907;BME280;16776;50.958;10.994;2023-02-18T06:53:32;98639.84;;;8.69;100.00
29907;BME280;16776;50.958;10.994;2023-02-18T06:55:59;98649.16;;;8.74;100.00
29907;BME280;16776;50.958;10.994;2023-02-18T06:58:25;98655.78;;;8.86;100.00
29907;BME280;16776;50.958;10.994;2023-02-18T07:00:52;98652.19;;;8.94;100.00
29907;BME280;16776;50.958;10.994;2023-02-18T07:03:20;98652.84;;;9.02;100.00
29907;BME280;16776;50.958;10.994;2023-02-18T07:05:46;98649.41;;;9.05;100.00
29907;BME280;16776;50.958;10.994;2023-02-18T07:08:15;98636.53;;;9.07;100.00
29907;BME280;16776;50.958;10.994;2023-02-18T07:10:42;98630.53;;;9.06;100.00
29907;BME280;16776;50.958;10.994;2023-02-18T07:13:08;98612.53;;;9.08;100.00
29907;BME280;16776;50.958;10.994;2023-02-18T07:15:35;98602.31;;;9.04;100.00
29907;BME280;16776;50.958;10.994;2023-02-18T07:18:01;98610.03;;;9.03;100.00
29907;BME280;16776;50.958;10.994;2023-02-18T07:20:30;98612.59;;;9.03;100.00
29907;BME280;16776;50.958;10.994;2023-02-18T07:22:57;98594.72;;;8.98;100.00
29907;BME280;16776;50.958;10.994;2023-02-18T07:25:23;98591.41;;;8.95;100.00
29907;BME280;16776;50.958;10.994;2023-02-18T07:27:51;98590.56;;;8.94;100.00
29907;BME280;16776;50.958;10.994;2023-02-18T07:30:18;98576.16;;;8.86;100.00
29907;BME280;16776;50.958;10.994;2023-02-18T07:32:45;98584.56;;;8.94;100.00
29907;BME280;16776;50.958;10.994;2023-02-18T07:35:13;98586.28;;;8.93;100.00
29907;BME280;16776;50.958;10.994;2023-02-18T07:37:43;98575.09;;;8.96;100.00
29907;BME280;16776;50.958;10.994;2023-02-18T07:40:11;98584.50;;;8.95;100.00
29907;BME280;16776;50.958;10.994;2023-02-18T07:42:38;98575.13;;;8.94;100.00
29907;BME280;16776;50.958;10.994;2023-02-18T07:45:05;98570.78;;;8.96;100.00
29907;BME280;16776;50.958;10.994;2023-02-18T07:47:32;98559.66;;;8.97;100.00
29907;BME280;16776;50.958;10.994;2023-02-18T07:49:59;98562.16;;;9.00;100.00
29907;BME280;16776;50.958;10.994;2023-02-18T07:52:25;98571.50;;;9.03;100.00
29907;BME280;16776;50.958;10.994;2023-02-18T07:54:53;98589.44;;;9.06;100.00
29907;BME280;16776;50.958;10.994;2023-02-18T07:57:20;98585.94;;;9.09;100.00
29907;BME280;16776;50.958;10.994;2023-02-18T07:59:46;98569.63;;;9.11;100.00
29907;BME280;16776;50.958;10.994;2023-02-18T08:02:17;98565.22;;;9.18;100.00
29907;BME280;16776;50.958;10.994;2023-02-18T08:04:43;98567.81;;;9.15;100.00
29907;BME280;16776;50.958;10.994;2023-02-18T08:07:12;98572.88;;;9.19;100.00
29907;BME280;16776;50.958;10.994;2023-02-18T08:09:39;98580.56;;;9.21;100.00
29907;BME280;16776;50.958;10.994;2023-02-18T08:12:07;98568.47;;;9.26;100.00
29907;BME280;16776;50.958;10.994;2023-02-18T08:14:34;98565.03;;;9.25;100.00
29907;BME280;16776;50.958;10.994;2023-02-18T08:17:01;98559.03;;;9.26;100.00
29907;BME280;16776;50.958;10.994;2023-02-18T08:19:27;98559.78;;;9.30;100.00
29907;BME280;16776;50.958;10.994;2023-02-18T08:21:54;98560.63;;;9.30;100.00
29907;BME280;16776;50.958;10.994;2023-02-18T08:24:20;98557.94;;;9.35;100.00
29907;BME280;16776;50.958;10.994;2023-02-18T08:26:47;98551.94;;;9.36;100.00
29907;BME280;16776;50.958;10.994;2023-02-18T08:29:15;98556.19;;;9.40;100.00
29907;BME280;16776;50.958;10.994;2023-02-18T08:31:41;98566.47;;;9.40;100.00
29907;BME280;16776;50.958;10.994;2023-02-18T08:34:08;98569.81;;;9.42;100.00
29907;BME280;16776;50.958;10.994;2023-02-18T08:36:34;98563.78;;;9.44;100.00
29907;BME280;16776;50.958;10.994;2023-02-18T08:39:01;98556.03;;;9.46;100.00
29907;BME280;16776;50.958;10.994;2023-02-18T08:41:28;98554.25;;;9.48;100.00
29907;BME280;16776;50.958;10.994;2023-02-18T08:43:55;98554.19;;;9.51;100.00
29907;BME280;16776;50.958;10.994;2023-02-18T08:46:23;98545.50;;;9.55;100.00
29907;BME280;16776;50.958;10.994;2023-02-18T08:48:49;98543.75;;;9.57;100.00
29907;BME280;16776;50.958;10.994;2023-02-18T08:51:18;98533.38;;;9.60;100.00
29907;BME280;16776;50.958;10.994;2023-02-18T08:53:45;98528.19;;;9.63;100.00
29907;BME280;16776;50.958;10.994;2023-02-18T08:56:12;98535.81;;;9.66;100.00
29907;BME280;16776;50.958;10.994;2023-02-18T08:58:39;98520.31;;;9.69;100.00
29907;BME280;16776;50.958;10.994;2023-02-18T09:01:08;98522.88;;;9.71;100.00
29907;BME280;16776;50.958;10.994;2023-02-18T09:03:37;98526.13;;;9.77;100.00
29907;BME280;16776;50.958;10.994;2023-02-18T09:06:05;98518.34;;;9.79;100.00
29907;BME280;16776;50.958;10.994;2023-02-18T09:08:31;98505.56;;;9.77;100.00
29907;BME280;16776;50.958;10.994;2023-02-18T09:11:00;98513.91;;;9.85;100.00
29907;BME280;16776;50.958;10.994;2023-02-18T09:13:29;98512.97;;;9.88;100.00
29907;BME280;16776;50.958;10.994;2023-02-18T09:15:57;98513.72;;;9.92;100.00
29907;BME280;16776;50.958;10.994;2023-02-18T09:18:24;98523.13;;;9.94;100.00
29907;BME280;16776;50.958;10.994;2023-02-18T09:20:55;98530.63;;;10.02;100.00
29907;BME280;16776;50.958;10.994;2023-02-18T09:23:22;98518.78;;;9.96;100.00
29907;BME280;16776;50.958;10.994;2023-02-18T09:25:49;98530.69;;;9.99;100.00
29907;BME280;16776;50.958;10.994;2023-02-18T09:28:16;98536.63;;;10.02;100.00
29907;BME280;16776;50.958;10.994;2023-02-18T09:30:42;98538.31;;;10.03;100.00
29907;BME280;16776;50.958;10.994;2023-02-18T09:33:09;98521.16;;;10.04;100.00
29907;BME280;16776;50.958;10.994;2023-02-18T09:35:42;98528.63;;;10.13;100.00
29907;BME280;16776;50.958;10.994;2023-02-18T09:38:12;98512.38;;;10.11;100.00
29907;BME280;16776;50.958;10.994;2023-02-18T09:40:43;98524.28;;;10.15;100.00
29907;BME280;16776;50.958;10.994;2023-02-18T09:43:17;98515.63;;;10.17;100.00
29907;BME280;16776;50.958;10.994;2023-02-18T09:45:48;98514.88;;;10.14;100.00
29907;BME280;16776;50.958;10.994;2023-02-18T09:48:15;98505.44;;;10.14;100.00
29907;BME280;16776;50.958;10.994;2023-02-18T09:50:45;98518.13;;;10.20;100.00
29907;BME280;16776;50.958;10.994;2023-02-18T09:53:15;98494.13;;;10.20;100.00
29907;BME280;16776;50.958;10.994;2023-02-18T09:55:42;98507.88;;;10.19;100.00
29907;BME280;16776;50.958;10.994;2023-02-18T09:58:13;98505.22;;;10.22;100.00
29907;BME280;16776;50.958;10.994;2023-02-18T10:00:41;98508.72;;;10.19;100.00
29907;BME280;16776;50.958;10.994;2023-02-18T10:03:15;98487.22;;;10.22;100.00
29907;BME280;16776;50.958;10.994;2023-02-18T10:05:48;98475.25;;;10.19;100.00
29907;BME280;16776;50.958;10.994;2023-02-18T10:08:20;98486.44;;;10.18;100.00
29907;BME280;16776;50.958;10.994;2023-02-18T10:10:48;98483.16;;;10.13;100.00
29907;BME280;16776;50.958;10.994;2023-02-18T10:13:16;98477.16;;;10.13;100.00
29907;BME280;16776;50.958;10.994;2023-02-18T10:15:44;98480.69;;;10.10;100.00
29907;BME280;16776;50.958;10.994;2023-02-18T10:18:22;98490.81;;;10.16;100.00
29907;BME280;16776;50.958;10.994;2023-02-18T10:20:52;98482.41;;;10.10;100.00
29907;BME280;16776;50.958;10.994;2023-02-18T10:23:20;98483.16;;;10.13;100.00
29907;BME280;16776;50.958;10.994;2023-02-18T10:25:49;98487.56;;;10.10;100.00
29907;BME280;16776;50.958;10.994;2023-02-18T10:28:18;98488.34;;;10.12;100.00
29907;BME280;16776;50.958;10.994;2023-02-18T10:30:51;98481.38;;;10.15;100.00
29907;BME280;16776;50.958;10.994;2023-02-18T10:33:31;98483.13;;;10.15;100.00
29907;BME280;16776;50.958;10.994;2023-02-18T10:36:04;98493.47;;;10.12;100.00
29907;BME280;16776;50.958;10.994;2023-02-18T10:38:40;98484.00;;;10.14;100.00
29907;BME280;16776;50.958;10.994;2023-02-18T10:41:15;98484.06;;;10.11;100.00
29907;BME280;16776;50.958;10.994;2023-02-18T10:43:49;98480.72;;;10.09;100.00
29907;BME280;16776;50.958;10.994;2023-02-18T10:46:27;98479.94;;;10.05;100.00
29907;BME280;16776;50.958;10.994;2023-02-18T10:49:08;98479.91;;;10.07;100.00
29907;BME280;16776;50.958;10.994;2023-02-18T10:51:46;98480.00;;;10.04;100.00
29907;BME280;16776;50.958;10.994;2023-02-18T10:54:15;98478.34;;;10.01;100.00
29907;BME280;16776;50.958;10.994;2023-02-18T10:56:46;98472.28;;;10.04;100.00
29907;BME280;16776;50.958;10.994;2023-02-18T10:59:18;98482.50;;;10.05;100.00
29907;BME280;16776;50.958;10.994;2023-02-18T11:01:53;98484.22;;;10.05;100.00
29907;BME280;16776;50.958;10.994;2023-02-18T11:04:24;98485.97;;;10.04;100.00
29907;BME280;16776;50.958;10.994;2023-02-18T11:06:52;98488.59;;;10.03;100.00
29907;BME280;16776;50.958;10.994;2023-02-18T11:09:28;98490.16;;;10.08;100.00
29907;BME280;16776;50.958;10.994;2023-02-18T11:12:04;98469.06;;;9.96;100.00
29907;BME280;16776;50.958;10.994;2023-02-18T11:14:39;98488.28;;;10.13;100.00
29907;BME280;16776;50.958;10.994;2023-02-18T11:17:14;98478.13;;;10.09;100.00
29907;BME280;16776;50.958;10.994;2023-02-18T11:19:41;98470.41;;;10.09;100.00
29907;BME280;16776;50.958;10.994;2023-02-18T11:22:15;98465.91;;;10.17;100.00
29907;BME280;16776;50.958;10.994;2023-02-18T11:24:45;98471.09;;;10.15;100.00
29907;BME280;16776;50.958;10.994;2023-02-18T11:27:21;98444.47;;;10.16;100.00
29907;BME280;16776;50.958;10.994;2023-02-18T11:29:51;98446.22;;;10.16;100.00
29907;BME280;16776;50.958;10.994;2023-02-18T11:32:25;98453.94;;;10.16;100.00
29907;BME280;16776;50.958;10.994;2023-02-18T11:34:52;98456.41;;;10.19;100.00
29907;BME280;16776;50.958;10.994;2023-02-18T11:37:20;98438.25;;;10.23;100.00
29907;BME280;16776;50.958;10.994;2023-02-18T11:39:49;98451.00;;;10.28;100.00
29907;BME280;16776;50.958;10.994;2023-02-18T11:42:18;98440.72;;;10.28;100.00
29907;BME280;16776;50.958;10.994;2023-02-18T11:44:49;98435.47;;;10.31;100.00
29907;BME280;16776;50.958;10.994;2023-02-18T11:47:26;98440.50;;;10.36;100.00
29907;BME280;16776;50.958;10.994;2023-02-18T11:50:09;98442.97;;;10.39;100.00
29907;BME280;16776;50.958;10.994;2023-02-18T11:52:41;98425.13;;;10.33;100.00
29907;BME280;16776;50.958;10.994;2023-02-18T11:55:14;98416.38;;;10.38;100.00
29907;BME280;16776;50.958;10.994;2023-02-18T11:57:43;98412.13;;;10.37;100.00
29907;BME280;16776;50.958;10.994;2023-02-18T12:00:17;98408.63;;;10.40;100.00
29907;BME280;16776;50.958;10.994;2023-02-18T12:02:46;98403.53;;;10.37;100.00
29907;BME280;16776;50.958;10.994;2023-02-18T12:05:16;98382.88;;;10.40;100.00
29907;BME280;16776;50.958;10.994;2023-02-18T12:07:45;98357.47;;;10.29;100.00
29907;BME280;16776;50.958;10.994;2023-02-18T12:10:16;98373.50;;;10.37;100.00
29907;BME280;16776;50.958;10.994;2023-02-18T12:12:47;98387.22;;;10.38;100.00
29907;BME280;16776;50.958;10.994;2023-02-18T12:15:20;98387.19;;;10.39;100.00
29907;BME280;16776;50.958;10.994;2023-02-18T12:18:03;98413.56;;;10.47;100.00
29907;BME280;16776;50.958;10.994;2023-02-18T12:20:48;98399.63;;;10.54;100.00
29907;BME280;16776;50.958;10.994;2023-02-18T12:23:25;98407.25;;;10.57;100.00
29907;BME280;16776;50.958;10.994;2023-02-18T12:25:59;98410.44;;;10.66;100.00
29907;BME280;16776;50.958;10.994;2023-02-18T12:28:41;98390.50;;;10.72;100.00
29907;BME280;16776;50.958;10.994;2023-02-18T12:31:23;98400.66;;;10.77;100.00
29907;BME280;16776;50.958;10.994;2023-02-18T12:34:15;98385.00;;;10.83;100.00
29907;BME280;16776;50.958;10.994;2023-02-18T12:36:53;98402.25;;;10.81;100.00
29907;BME280;16776;50.958;10.994;2023-02-18T12:39:36;98393.69;;;10.80;100.00
29907;BME280;16776;50.958;10.994;2023-02-18T12:42:16;98392.88;;;10.78;100.00
29907;BME280;16776;50.958;10.994;2023-02-18T12:45:01;98398.91;;;10.77;100.00
29907;BME280;16776;50.958;10.994;2023-02-18T12:47:50;98410.09;;;10.76;100.00
29907;BME280;16776;50.958;10.994;2023-02-18T12:50:59;98398.06;;;10.77;100.00
29907;BME280;16776;50.958;10.994;2023-02-18T12:53:45;98397.53;;;10.67;100.00
29907;BME280;16776;50.958;10.994;2023-02-18T12:56:24;98400.75;;;10.74;100.00
29907;BME280;16776;50.958;10.994;2023-02-18T12:59:02;98413.88;;;10.66;100.00
29907;BME280;16776;50.958;10.994;2023-02-18T13:01:44;98403.59;;;10.64;100.00
29907;BME280;16776;50.958;10.994;2023-02-18T13:04:51;98406.22;;;10.63;100.00
29907;BME280;16776;50.958;10.994;2023-02-18T13:07:31;98410.88;;;10.50;100.00